sensor_id;sensor_type;location;lat;lon;timestamp;temperature;humidity
67165;SHT31;54093;50.014;19.984;2022-08-21T00:06:44;19.59;85.14
67165;SHT31;54093;50.014;19.984;2022-08-21T00:16:05;19.59;85.02
67165;SHT31;54093;50.014;19.984;2022-08-21T00:25:26;19.57;84.95
67165;SHT31;54093;50.014;19.984;2022-08-21T00:34:47;19.60;84.96
67165;SHT31;54093;50.014;19.984;2022-08-21T00:44:11;19.60;84.98
67165;SHT31;54093;50.014;19.984;2022-08-21T00:53:39;19.57;84.98
67165;SHT31;54093;50.014;19.984;2022-08-21T01:03:02;19.56;85.05
67165;SHT31;54093;50.014;19.984;2022-08-21T01:12:25;19.49;85.60
67165;SHT31;54093;50.014;19.984;2022-08-21T01:21:46;19.37;86.26
67165;SHT31;54093;50.014;19.984;2022-08-21T01:31:09;19.35;86.00
67165;SHT31;54093;50.014;19.984;2022-08-21T01:40:31;19.32;86.29
67165;SHT31;54093;50.014;19.984;2022-08-21T01:49:52;19.29;86.44
67165;SHT31;54093;50.014;19.984;2022-08-21T01:59:13;19.30;86.52
67165;SHT31;54093;50.014;19.984;2022-08-21T02:08:34;19.27;86.55
67165;SHT31;54093;50.014;19.984;2022-08-21T02:17:58;19.30;86.36
67165;SHT31;54093;50.014;19.984;2022-08-21T02:27:19;19.26;86.64
67165;SHT31;54093;50.014;19.984;2022-08-21T02:36:40;19.35;86.58
67165;SHT31;54093;50.014;19.984;2022-08-21T02:46:01;19.32;86.93
67165;SHT31;54093;50.014;19.984;2022-08-21T02:55:25;19.23;87.40
67165;SHT31;54093;50.014;19.984;2022-08-21T03:04:47;19.25;87.71
67165;SHT31;54093;50.014;19.984;2022-08-21T03:14:07;19.30;87.56
67165;SHT31;54093;50.014;19.984;2022-08-21T03:23:28;19.37;87.54
67165;SHT31;54093;50.014;19.984;2022-08-21T03:32:51;19.45;87.27
67165;SHT31;54093;50.014;19.984;2022-08-21T03:42:11;19.49;87.15
67165;SHT31;54093;50.014;19.984;2022-08-21T03:51:32;19.56;86.92
67165;SHT31;54093;50.014;19.984;2022-08-21T04:00:56;19.56;86.83
67165;SHT31;54093;50.014;19.984;2022-08-21T04:10:17;19.59;86.78
67165;SHT31;54093;50.014;19.984;2022-08-21T04:19:38;19.63;86.81
67165;SHT31;54093;50.014;19.984;2022-08-21T04:28:59;19.74;86.26
67165;SHT31;54093;50.014;19.984;2022-08-21T04:38:21;19.81;85.72
67165;SHT31;54093;50.014;19.984;2022-08-21T04:47:41;19.93;85.73
67165;SHT31;54093;50.014;19.984;2022-08-21T04:57:06;19.95;86.18
67165;SHT31;54093;50.014;19.984;2022-08-21T05:06:34;20.02;86.15
67165;SHT31;54093;50.014;19.984;2022-08-21T05:15:55;20.08;86.22
67165;SHT31;54093;50.014;19.984;2022-08-21T05:25:16;20.17;86.14
67165;SHT31;54093;50.014;19.984;2022-08-21T05:34:37;20.25;86.10
67165;SHT31;54093;50.014;19.984;2022-08-21T05:43:58;20.32;85.98
67165;SHT31;54093;50.014;19.984;2022-08-21T05:53:20;20.42;85.67
67165;SHT31;54093;50.014;19.984;2022-08-21T06:02:41;20.52;85.39
67165;SHT31;54093;50.014;19.984;2022-08-21T06:12:07;20.59;85.14
67165;SHT31;54093;50.014;19.984;2022-08-21T06:21:28;20.68;85.02
67165;SHT31;54093;50.014;19.984;2022-08-21T06:30:49;20.70;84.75
67165;SHT31;54093;50.014;19.984;2022-08-21T06:40:10;20.80;84.42
67165;SHT31;54093;50.014;19.984;2022-08-21T06:49:32;20.90;84.30
67165;SHT31;54093;50.014;19.984;2022-08-21T06:58:53;20.97;84.13
67165;SHT31;54093;50.014;19.984;2022-08-21T07:08:14;21.04;84.02
67165;SHT31;54093;50.014;19.984;2022-08-21T07:17:35;21.10;83.71
67165;SHT31;54093;50.014;19.984;2022-08-21T07:26:55;21.12;83.74
67165;SHT31;54093;50.014;19.984;2022-08-21T07:36:16;21.21;83.62
67165;SHT31;54093;50.014;19.984;2022-08-21T07:45:38;21.28;83.29
67165;SHT31;54093;50.014;19.984;2022-08-21T07:54:59;21.34;83.24
67165;SHT31;54093;50.014;19.984;2022-08-21T08:04:20;21.41;83.08
67165;SHT31;54093;50.014;19.984;2022-08-21T08:13:46;21.48;82.92
67165;SHT31;54093;50.014;19.984;2022-08-21T08:23:10;21.65;82.69
67165;SHT31;54093;50.014;19.984;2022-08-21T08:32:31;21.79;82.16
67165;SHT31;54093;50.014;19.984;2022-08-21T08:42:09;21.96;81.85
67165;SHT31;54093;50.014;19.984;2022-08-21T08:51:46;22.06;81.63
67165;SHT31;54093;50.014;19.984;2022-08-21T09:01:16;22.13;81.12
67165;SHT31;54093;50.014;19.984;2022-08-21T09:29:49;22.36;80.55
67165;SHT31;54093;50.014;19.984;2022-08-21T09:39:13;22.79;80.60
67165;SHT31;54093;50.014;19.984;2022-08-21T09:48:45;23.09;78.81
67165;SHT31;54093;50.014;19.984;2022-08-21T09:58:06;23.39;78.48
67165;SHT31;54093;50.014;19.984;2022-08-21T10:07:30;23.50;76.37
67165;SHT31;54093;50.014;19.984;2022-08-21T10:55:41;23.34;76.10
67165;SHT31;54093;50.014;19.984;2022-08-21T11:05:17;22.82;75.08
67165;SHT31;54093;50.014;19.984;2022-08-21T11:53:15;22.30;75.10
67165;SHT31;54093;50.014;19.984;2022-08-21T12:03:06;22.23;75.43
67165;SHT31;54093;50.014;19.984;2022-08-21T12:12:36;22.99;73.60
67165;SHT31;54093;50.014;19.984;2022-08-21T12:21:58;23.29;72.20
67165;SHT31;54093;50.014;19.984;2022-08-21T12:31:24;23.57;72.43
67165;SHT31;54093;50.014;19.984;2022-08-21T12:40:50;23.32;72.83
67165;SHT31;54093;50.014;19.984;2022-08-21T12:50:19;23.46;71.74
67165;SHT31;54093;50.014;19.984;2022-08-21T12:59:41;23.23;72.89
67165;SHT31;54093;50.014;19.984;2022-08-21T13:09:06;22.90;73.82
67165;SHT31;54093;50.014;19.984;2022-08-21T13:18:29;22.53;74.80
67165;SHT31;54093;50.014;19.984;2022-08-21T13:28:09;22.40;75.88
67165;SHT31;54093;50.014;19.984;2022-08-21T13:37:31;22.41;76.47
67165;SHT31;54093;50.014;19.984;2022-08-21T13:46:53;22.30;76.45
67165;SHT31;54093;50.014;19.984;2022-08-21T13:56:29;22.12;77.46
67165;SHT31;54093;50.014;19.984;2022-08-21T14:05:50;21.99;77.72
67165;SHT31;54093;50.014;19.984;2022-08-21T14:15:14;21.96;78.11
67165;SHT31;54093;50.014;19.984;2022-08-21T14:24:39;21.83;78.73
67165;SHT31;54093;50.014;19.984;2022-08-21T14:34:01;21.66;79.15
67165;SHT31;54093;50.014;19.984;2022-08-21T14:43:22;21.62;79.72
67165;SHT31;54093;50.014;19.984;2022-08-21T14:52:43;21.54;79.95
67165;SHT31;54093;50.014;19.984;2022-08-21T15:02:07;21.59;80.02
67165;SHT31;54093;50.014;19.984;2022-08-21T15:11:28;21.39;79.61
67165;SHT31;54093;50.014;19.984;2022-08-21T15:20:50;20.87;80.13
67165;SHT31;54093;50.014;19.984;2022-08-21T15:30:11;20.49;80.39
67165;SHT31;54093;50.014;19.984;2022-08-21T15:39:32;20.11;80.92
67165;SHT31;54093;50.014;19.984;2022-08-21T15:48:53;19.64;81.69
67165;SHT31;54093;50.014;19.984;2022-08-21T15:58:15;19.30;82.86
67165;SHT31;54093;50.014;19.984;2022-08-21T16:07:36;18.98;85.59
67165;SHT31;54093;50.014;19.984;2022-08-21T16:16:57;18.64;87.46
67165;SHT31;54093;50.014;19.984;2022-08-21T16:26:18;18.50;87.56
67165;SHT31;54093;50.014;19.984;2022-08-21T16:35:39;18.13;89.03
67165;SHT31;54093;50.014;19.984;2022-08-21T16:45:01;17.99;89.34
67165;SHT31;54093;50.014;19.984;2022-08-21T16:54:24;17.93;89.80
67165;SHT31;54093;50.014;19.984;2022-08-21T17:03:46;17.92;90.13
67165;SHT31;54093;50.014;19.984;2022-08-21T17:13:08;17.85;90.26
67165;SHT31;54093;50.014;19.984;2022-08-21T17:22:28;17.83;90.48
67165;SHT31;54093;50.014;19.984;2022-08-21T17:31:49;17.69;89.97
67165;SHT31;54093;50.014;19.984;2022-08-21T17:41:10;17.58;89.80
67165;SHT31;54093;50.014;19.984;2022-08-21T17:50:31;17.35;89.66
67165;SHT31;54093;50.014;19.984;2022-08-21T17:59:52;17.21;90.09
67165;SHT31;54093;50.014;19.984;2022-08-21T18:09:14;17.10;90.28
67165;SHT31;54093;50.014;19.984;2022-08-21T18:18:42;16.99;90.56
67165;SHT31;54093;50.014;19.984;2022-08-21T18:28:05;16.89;90.38
67165;SHT31;54093;50.014;19.984;2022-08-21T18:37:30;16.83;90.91
67165;SHT31;54093;50.014;19.984;2022-08-21T18:46:56;16.87;90.87
67165;SHT31;54093;50.014;19.984;2022-08-21T18:56:17;16.84;91.04
67165;SHT31;54093;50.014;19.984;2022-08-21T19:05:39;16.77;90.95
67165;SHT31;54093;50.014;19.984;2022-08-21T19:15:05;16.73;91.31
67165;SHT31;54093;50.014;19.984;2022-08-21T19:24:26;16.62;91.44
67165;SHT31;54093;50.014;19.984;2022-08-21T19:33:54;16.65;91.42
67165;SHT31;54093;50.014;19.984;2022-08-21T19:43:18;16.62;91.27
67165;SHT31;54093;50.014;19.984;2022-08-21T19:52:39;16.61;91.44
67165;SHT31;54093;50.014;19.984;2022-08-21T20:02:01;16.59;91.48
67165;SHT31;54093;50.014;19.984;2022-08-21T20:11:32;16.52;91.27
67165;SHT31;54093;50.014;19.984;2022-08-21T20:20:54;16.47;91.44
67165;SHT31;54093;50.014;19.984;2022-08-21T20:30:14;16.45;91.44
67165;SHT31;54093;50.014;19.984;2022-08-21T20:39:36;16.44;91.41
67165;SHT31;54093;50.014;19.984;2022-08-21T20:48:57;16.42;91.75
67165;SHT31;54093;50.014;19.984;2022-08-21T20:58:28;16.41;91.69
67165;SHT31;54093;50.014;19.984;2022-08-21T21:07:56;16.42;91.59
67165;SHT31;54093;50.014;19.984;2022-08-21T21:17:30;16.38;91.36
67165;SHT31;54093;50.014;19.984;2022-08-21T21:26:57;16.36;91.79
67165;SHT31;54093;50.014;19.984;2022-08-21T22:06:16;16.34;92.18
67165;SHT31;54093;50.014;19.984;2022-08-21T22:15:37;16.32;91.96
67165;SHT31;54093;50.014;19.984;2022-08-21T22:25:11;16.31;92.23
67165;SHT31;54093;50.014;19.984;2022-08-21T22:34:33;16.31;91.98
67165;SHT31;54093;50.014;19.984;2022-08-21T22:43:58;16.31;92.00
67165;SHT31;54093;50.014;19.984;2022-08-21T22:53:26;16.34;91.91
67165;SHT31;54093;50.014;19.984;2022-08-21T23:12:25;16.31;91.73
